Estación Meteorológica Peña el Pijo (Robertgarden) [ 12/10/18 12:16:48 CET ]

Fecha Hora Presion(HPa) Temp (°C) Humedad % Rocio (°C) Viento ( m/s) Direccion Lluvia 1Hora(mm) Lluvia 24H(mm) LLuvia Total(mm)
2018-Oct-02 01:01:42 1012.600 8.5 57 0.4         356.38
2018-Oct-02 02:01:37 1012.400 7.6 59 0.1         356.38
2018-Oct-02 03:01:43 1012.000 6.4 63 -0.2         356.38
2018-Oct-02 04:03:31 1012.000 5.9 64 -0.4         356.38
2018-Oct-02 05:01:58 1011.800 5.3 65 -0.8         356.38
2018-Oct-02 06:01:50 1011.700 5.2 66 -0.6         356.38
2018-Oct-02 07:02:03 1011.700 5.0 67 -0.6         356.38
2018-Oct-02 08:01:46 1012.100 4.5 67 -1.1         356.38
2018-Oct-02 09:01:54 1012.300 3.5 71 -1.3         356.38
2018-Oct-02 10:01:43 1012.400 13.9 59 6.0         356.38
2018-Oct-02 11:01:46 1012.500 19.5 34 3.1         356.38
2018-Oct-02 12:01:47 1012.700 23.9 28 4.2         356.38
2018-Oct-02 13:01:54 1012.700 24.9 22 1.6         356.38
2018-Oct-02 14:01:43 1012.500 24.5 22 1.2 1.5 NNE     356.38
2018-Oct-02 15:01:51 1012.000 25.5 22 2.1         356.38
2018-Oct-02 16:01:44 1011.900 25.7 21 1.6 1.7 NNE     356.38
2018-Oct-02 17:01:41 1011.700 25.1 24 2.9         356.38
2018-Oct-02 18:01:41 1012.000 23.8 28 4.1         356.38
2018-Oct-02 19:01:48 1012.300 20.1 31 2.4         356.38
2018-Oct-02 20:01:49 1013.000 17.7 47 6.2         356.38
2018-Oct-02 21:01:47 1013.700 15.3 58 7.1         356.38
2018-Oct-02 22:01:37 1014.300 12.5 65 6.1         356.38
2018-Oct-02 23:01:43 1014.700 10.8 70 5.6         356.38

Temperatura Máxima:25°    Temperatura Mínima:
Presión Máxima:1014.700 Hpa    Presión Mínima:1011.700 Hpa


Volver